Time;durP1;ratioP1;P1;durP2;ratioP2;P2;SDS_P1;SDS_P2;PMS_P1;PMS_P2;Temp;Humidity;BMP_temperature;BMP_pressure;BME280_temperature;BME280_humidity;BME280_pressure;Samples;Min_cycle;Max_cycle;Signal;HPM_P1;HPM_P2
2021/03/13 00:00:06;;;;;;;86.07;51.17;;;17.40;48.80;;;;;;5073667;28;20035;-64
2021/03/13 00:02:32;;;;;;;84.43;50.15;;;17.50;48.40;;;;;;5073204;28;20036;-65
2021/03/13 00:04:58;;;;;;;67.82;43.67;;;17.50;48.50;;;;;;5073512;28;20020;-65
2021/03/13 00:07:23;;;;;;;71.43;39.47;;;17.50;47.50;;;;;;5073540;28;20154;-62
2021/03/13 00:09:49;;;;;;;66.57;39.28;;;17.50;47.40;;;;;;5063380;28;20025;-61
2021/03/13 00:12:15;;;;;;;67.72;40.40;;;17.40;47.40;;;;;;5052844;28;20025;-64
2021/03/13 00:14:40;;;;;;;64.82;39.95;;;17.30;48.30;;;;;;5057248;28;20056;-68
2021/03/13 00:17:06;;;;;;;67.10;40.35;;;17.30;48.20;;;;;;5061702;28;20036;-68
2021/03/13 00:19:32;;;;;;;67.38;41.35;;;17.30;48.10;;;;;;5063308;28;20021;-68
2021/03/13 00:21:57;;;;;;;68.47;41.60;;;17.30;48.30;;;;;;5061799;28;20024;-68
2021/03/13 00:24:23;;;;;;;72.05;43.53;;;17.20;48.80;;;;;;5062445;28;20033;-68
2021/03/13 00:26:49;;;;;;;66.55;40.88;;;17.20;48.30;;;;;;5063084;28;20052;-68
2021/03/13 00:29:14;;;;;;;68.30;41.40;;;17.20;48.60;;;;;;5063381;28;20483;-67
2021/03/13 00:31:40;;;;;;;72.47;44.00;;;17.20;49.40;;;;;;5062168;28;20059;-67
2021/03/13 00:34:06;;;;;;;71.47;41.38;;;17.20;49.30;;;;;;5061640;28;20480;-68
2021/03/13 00:36:32;;;;;;;77.40;42.42;;;17.10;49.50;;;;;;5063032;28;20060;-67
2021/03/13 00:38:57;;;;;;;73.97;42.00;;;17.10;49.60;;;;;;5061841;28;20025;-67
2021/03/13 00:41:23;;;;;;;71.68;42.92;;;17.20;50.30;;;;;;5061989;28;20108;-68
2021/03/13 00:43:49;;;;;;;69.65;44.47;;;17.20;50.10;;;;;;5063031;28;20112;-68
2021/03/13 00:46:14;;;;;;;72.22;43.03;;;17.10;50.40;;;;;;5061153;28;20029;-68
2021/03/13 00:48:40;;;;;;;71.53;42.28;;;17.10;50.40;;;;;;5062355;28;20495;-67
2021/03/13 00:51:05;;;;;;;68.82;41.17;;;17.10;50.90;;;;;;5062498;28;20481;-67
2021/03/13 00:53:31;;;;;;;68.18;40.08;;;17.10;50.70;;;;;;5059880;28;20475;-67
2021/03/13 00:55:57;;;;;;;66.55;39.97;;;17.20;50.40;;;;;;5062831;28;20035;-67
2021/03/13 00:58:22;;;;;;;68.40;39.60;;;17.20;50.40;;;;;;5062332;28;20078;-68
2021/03/13 01:00:48;;;;;;;65.80;39.08;;;17.20;50.40;;;;;;5061196;28;20020;-67
2021/03/13 01:03:14;;;;;;;65.68;39.47;;;17.30;50.60;;;;;;5062884;28;20048;-67
2021/03/13 01:05:40;;;;;;;67.30;39.97;;;17.30;50.80;;;;;;5061684;28;20033;-67
2021/03/13 01:08:07;;;;;;;72.43;39.47;;;17.20;51.10;;;;;;5065343;28;20028;-68
2021/03/13 01:10:38;;;;;;;65.75;36.63;;;17.20;51.10;;;;;;5066861;28;20025;-67
2021/03/13 01:13:05;;;;;;;67.25;38.80;;;17.20;51.30;;;;;;5066153;28;20112;-68
2021/03/13 01:15:31;;;;;;;64.82;39.13;;;17.10;51.30;;;;;;5064490;28;20369;-68
2021/03/13 01:17:58;;;;;;;64.22;37.78;;;17.10;51.30;;;;;;5066421;28;20452;-68
2021/03/13 01:20:25;;;;;;;58.70;37.17;;;17.10;51.30;;;;;;5065878;28;20091;-68
2021/03/13 01:22:51;;;;;;;57.50;34.90;;;17.00;51.40;;;;;;5064693;28;20027;-67
2021/03/13 01:25:17;;;;;;;58.03;35.42;;;17.00;51.50;;;;;;5066351;28;20028;-68
2021/03/13 01:27:44;;;;;;;52.28;34.78;;;17.00;51.60;;;;;;5065627;28;20056;-67
2021/03/13 01:30:19;;;;;;;59.58;35.40;;;16.90;51.60;;;;;;5064467;28;20028;-67
2021/03/13 01:32:45;;;;;;;60.97;35.45;;;16.90;52.00;;;;;;5066394;28;20029;-68
2021/03/13 01:35:11;;;;;;;54.83;33.88;;;16.90;52.40;;;;;;5066562;28;20020;-67
2021/03/13 01:37:37;;;;;;;53.80;33.75;;;16.90;52.40;;;;;;5064627;28;20053;-67
2021/03/13 01:40:10;;;;;;;54.58;32.97;;;16.90;52.20;;;;;;5065326;28;20097;-67
2021/03/13 01:42:37;;;;;;;54.47;33.35;;;16.90;52.20;;;;;;5066084;28;20024;-68
2021/03/13 01:45:05;;;;;;;55.55;34.25;;;17.00;52.20;;;;;;5065189;28;20171;-67
2021/03/13 01:47:30;;;;;;;58.50;33.10;;;17.00;52.10;;;;;;5064089;28;20126;-68
2021/03/13 01:49:57;;;;;;;51.15;33.28;;;17.10;52.00;;;;;;5066186;28;20049;-67
2021/03/13 01:52:23;;;;;;;57.28;33.67;;;17.20;52.00;;;;;;5065220;28;20032;-67
2021/03/13 01:54:49;;;;;;;49.88;30.75;;;17.40;51.60;;;;;;5064005;28;20722;-67
2021/03/13 01:57:19;;;;;;;49.63;30.35;;;17.60;51.80;;;;;;5065941;28;20480;-68
2021/03/13 01:59:46;;;;;;;51.33;31.40;;;17.80;50.70;;;;;;5063972;28;20112;-67
2021/03/13 02:02:14;;;;;;;48.10;30.45;;;18.00;50.30;;;;;;5063706;28;20021;-67
2021/03/13 02:04:41;;;;;;;51.17;28.75;;;18.10;50.10;;;;;;5065332;28;20030;-67
2021/03/13 02:07:06;;;;;;;45.92;26.88;;;18.10;50.40;;;;;;5065357;28;20033;-67
2021/03/13 02:09:59;;;;;;;45.10;27.52;;;18.00;50.40;;;;;;5063681;28;20024;-68
2021/03/13 02:12:39;;;;;;;47.03;27.48;;;18.00;50.50;;;;;;5066005;28;20024;-67
2021/03/13 02:15:19;;;;;;;50.17;28.33;;;18.00;50.60;;;;;;5065782;28;20521;-68
2021/03/13 02:18:15;;;;;;;46.58;27.85;;;18.00;50.70;;;;;;5065075;28;20472;-68
2021/03/13 02:21:01;;;;;;;44.75;26.13;;;18.00;50.70;;;;;;5061686;28;20836;-68
2021/03/13 02:23:29;;;;;;;46.45;26.02;;;18.00;50.90;;;;;;5065663;28;20060;-68
2021/03/13 02:26:01;;;;;;;43.40;26.05;;;17.90;50.80;;;;;;5065501;28;20078;-68
2021/03/13 02:28:52;;;;;;;40.45;25.05;;;17.90;50.90;;;;;;5062891;28;20029;-68
2021/03/13 02:31:18;;;;;;;43.95;25.70;;;17.90;51.00;;;;;;5053827;28;20025;-67
2021/03/13 02:33:48;;;;;;;40.17;25.33;;;17.90;51.00;;;;;;5053413;28;20037;-67
2021/03/13 02:36:19;;;;;;;41.83;25.30;;;17.80;51.10;;;;;;5054714;28;20041;-67
2021/03/13 02:38:51;;;;;;;42.53;24.67;;;17.80;51.20;;;;;;5054859;28;20047;-67
2021/03/13 02:41:26;;;;;;;37.35;23.00;;;17.80;51.30;;;;;;5054723;28;20033;-67
2021/03/13 02:43:57;;;;;;;38.30;23.67;;;17.80;51.40;;;;;;5055130;28;20032;-67
2021/03/13 02:46:25;;;;;;;36.50;23.50;;;17.80;51.50;;;;;;5055290;28;20036;-67
2021/03/13 02:48:53;;;;;;;36.22;22.85;;;17.80;51.60;;;;;;5055120;28;20079;-68
2021/03/13 02:51:23;;;;;;;35.13;23.02;;;17.70;51.50;;;;;;5055433;28;20028;-68
2021/03/13 02:53:50;;;;;;;37.45;23.25;;;17.70;51.60;;;;;;5054049;28;20481;-67
2021/03/13 02:56:17;;;;;;;36.83;21.80;;;17.70;51.80;;;;;;5055660;28;20114;-67
2021/03/13 02:58:51;;;;;;;34.47;22.08;;;17.70;51.70;;;;;;5055072;28;20087;-67
2021/03/13 03:01:19;;;;;;;38.13;21.55;;;17.70;51.60;;;;;;5054867;28;20029;-67
2021/03/13 03:03:47;;;;;;;33.63;20.83;;;17.80;51.80;;;;;;5055131;28;20060;-67
2021/03/13 03:06:13;;;;;;;32.35;20.23;;;17.80;51.60;;;;;;5055034;28;20040;-67
2021/03/13 03:08:41;;;;;;;34.88;21.25;;;17.80;51.80;;;;;;5054839;28;20025;-67
2021/03/13 03:11:09;;;;;;;32.13;20.65;;;17.70;51.90;;;;;;5055011;28;20033;-67
2021/03/13 03:13:34;;;;;;;34.47;21.10;;;17.70;51.90;;;;;;5054998;28;20071;-67
2021/03/13 03:16:03;;;;;;;33.42;21.50;;;17.60;51.90;;;;;;5054732;28;20426;-67
2021/03/13 03:18:29;;;;;;;32.72;19.73;;;17.60;51.90;;;;;;5054801;28;20032;-67
2021/03/13 03:20:56;;;;;;;32.95;19.23;;;17.50;51.90;;;;;;5054478;28;20029;-67
2021/03/13 03:23:22;;;;;;;31.80;18.73;;;17.50;52.10;;;;;;5054535;28;20465;-67
2021/03/13 03:25:51;;;;;;;31.33;19.08;;;17.50;52.10;;;;;;5054397;28;20131;-67
2021/03/13 03:28:19;;;;;;;32.30;17.98;;;17.50;52.30;;;;;;5054584;28;20032;-67
2021/03/13 03:30:47;;;;;;;27.77;17.10;;;17.40;52.30;;;;;;5053920;28;20090;-67
2021/03/13 03:33:12;;;;;;;28.95;17.92;;;17.40;53.00;;;;;;5054458;28;20090;-67
2021/03/13 03:35:38;;;;;;;30.10;17.83;;;17.40;52.40;;;;;;5054132;28;20028;-67
2021/03/13 03:38:04;;;;;;;30.40;18.35;;;17.40;52.40;;;;;;5054436;28;20033;-67
2021/03/13 03:40:33;;;;;;;29.27;17.60;;;17.30;52.30;;;;;;5054403;28;20025;-67
2021/03/13 03:43:04;;;;;;;29.73;17.13;;;17.30;52.40;;;;;;5054461;28;20100;-67
2021/03/13 03:45:32;;;;;;;24.83;15.60;;;17.30;52.50;;;;;;5054349;28;20591;-67
2021/03/13 03:48:04;;;;;;;28.45;17.20;;;17.30;52.50;;;;;;5053932;28;20044;-67
2021/03/13 03:50:31;;;;;;;26.70;16.55;;;17.30;52.60;;;;;;5054269;28;20120;-67
2021/03/13 03:52:58;;;;;;;27.35;15.88;;;17.30;52.60;;;;;;5054545;28;20080;-67
2021/03/13 03:55:25;;;;;;;26.65;16.42;;;17.30;52.60;;;;;;5054034;28;20035;-67
2021/03/13 03:57:51;;;;;;;24.55;14.98;;;17.30;52.50;;;;;;5054089;28;20498;-67
2021/03/13 04:00:19;;;;;;;25.35;15.30;;;17.40;52.50;;;;;;5053970;28;20021;-67
2021/03/13 04:02:46;;;;;;;27.63;17.38;;;17.40;52.50;;;;;;5054414;28;20469;-67
2021/03/13 04:05:17;;;;;;;24.17;14.63;;;17.40;52.40;;;;;;5054065;28;20465;-67
2021/03/13 04:07:43;;;;;;;23.67;15.43;;;17.40;52.40;;;;;;5054073;28;20480;-67
2021/03/13 04:10:10;;;;;;;24.20;14.65;;;17.30;52.50;;;;;;5054143;28;20032;-66
2021/03/13 04:12:39;;;;;;;24.25;14.77;;;17.40;52.40;;;;;;5053635;28;20440;-67
2021/03/13 04:15:07;;;;;;;26.35;14.43;;;17.40;52.30;;;;;;5053590;28;20036;-67
2021/03/13 04:17:33;;;;;;;22.58;14.57;;;17.30;52.10;;;;;;5053509;28;20041;-67
2021/03/13 04:20:00;;;;;;;21.77;13.63;;;17.30;52.20;;;;;;5053907;28;20033;-67
2021/03/13 04:22:26;;;;;;;24.85;14.82;;;17.20;52.40;;;;;;5053609;28;20025;-67
2021/03/13 04:24:53;;;;;;;22.95;13.32;;;17.10;52.60;;;;;;5053626;28;20029;-67
2021/03/13 04:27:20;;;;;;;20.80;13.20;;;17.10;52.60;;;;;;5053722;28;20056;-67
2021/03/13 04:29:47;;;;;;;22.38;12.95;;;17.10;52.70;;;;;;5053458;28;20052;-67
2021/03/13 04:32:17;;;;;;;19.65;12.52;;;17.20;52.80;;;;;;5053653;28;20457;-67
2021/03/13 04:34:44;;;;;;;21.52;12.73;;;17.10;52.60;;;;;;5053680;28;20032;-67
2021/03/13 04:37:11;;;;;;;20.83;13.00;;;17.10;52.80;;;;;;5053551;28;20052;-67
2021/03/13 04:39:38;;;;;;;18.33;11.30;;;17.10;53.00;;;;;;5053772;28;20078;-67
2021/03/13 04:42:06;;;;;;;20.35;11.65;;;17.10;53.00;;;;;;5059905;28;20029;-67
2021/03/13 04:44:33;;;;;;;21.27;12.93;;;17.10;52.90;;;;;;5060518;28;20473;-67
2021/03/13 04:46:59;;;;;;;22.25;12.88;;;17.20;52.90;;;;;;5060203;28;20036;-67
2021/03/13 04:49:26;;;;;;;18.48;11.85;;;17.30;52.70;;;;;;5060001;28;20031;-67
2021/03/13 04:51:52;;;;;;;22.58;13.32;;;17.40;52.50;;;;;;5060451;28;20027;-67
2021/03/13 04:54:18;;;;;;;19.65;12.43;;;17.50;52.40;;;;;;5060007;28;20082;-67
2021/03/13 04:56:43;;;;;;;17.88;10.82;;;17.60;52.10;;;;;;5059725;28;20115;-67
2021/03/13 04:59:09;;;;;;;18.73;10.95;;;17.90;51.50;;;;;;5059849;28;20087;-66
2021/03/13 05:01:35;;;;;;;17.13;10.70;;;18.10;51.00;;;;;;5059949;28;20029;-67
2021/03/13 05:04:00;;;;;;;20.45;11.25;;;18.20;50.90;;;;;;5060065;28;20095;-67
2021/03/13 05:06:26;;;;;;;18.23;11.23;;;18.20;50.70;;;;;;5060149;28;20489;-67
2021/03/13 05:08:52;;;;;;;20.30;11.23;;;18.30;50.80;;;;;;5059935;28;20427;-67
2021/03/13 05:11:17;;;;;;;15.75;9.32;;;18.20;51.30;;;;;;5059986;28;20029;-67
2021/03/13 05:13:44;;;;;;;19.17;11.10;;;18.10;51.30;;;;;;5059942;28;20021;-67
2021/03/13 05:16:09;;;;;;;14.65;10.02;;;18.00;51.30;;;;;;5059862;28;20036;-67
2021/03/13 05:18:35;;;;;;;17.50;9.90;;;18.00;51.40;;;;;;5059900;28;20063;-67
2021/03/13 05:21:01;;;;;;;16.52;10.35;;;18.00;52.00;;;;;;5059905;28;20025;-67
2021/03/13 05:23:27;;;;;;;17.58;10.02;;;17.90;51.40;;;;;;5059823;28;20028;-67
2021/03/13 05:25:53;;;;;;;17.95;9.73;;;18.00;51.50;;;;;;5059883;28;20447;-67
2021/03/13 05:28:18;;;;;;;15.82;9.63;;;17.90;51.60;;;;;;5059596;28;20083;-67
2021/03/13 05:30:44;;;;;;;16.73;10.02;;;17.90;51.70;;;;;;5059999;28;20025;-67
2021/03/13 05:33:10;;;;;;;17.48;9.73;;;17.90;51.70;;;;;;5059780;28;20033;-67
2021/03/13 05:35:40;;;;;;;19.42;10.13;;;17.90;51.70;;;;;;5059692;28;20067;-66
2021/03/13 05:38:06;;;;;;;16.55;9.43;;;17.80;51.80;;;;;;5059671;28;20457;-67
2021/03/13 05:40:32;;;;;;;16.55;9.68;;;17.80;51.80;;;;;;5059719;28;20025;-67
2021/03/13 05:42:58;;;;;;;15.70;8.50;;;17.80;51.90;;;;;;5059541;28;20480;-67
2021/03/13 05:45:24;;;;;;;14.18;8.02;;;17.70;52.20;;;;;;5059702;28;20075;-67
2021/03/13 05:47:50;;;;;;;13.57;8.32;;;17.80;51.90;;;;;;5059783;28;20033;-67
2021/03/13 05:50:17;;;;;;;15.68;8.90;;;17.70;52.00;;;;;;5059673;28;20025;-67
2021/03/13 05:52:53;;;;;;;15.65;8.77;;;17.70;52.10;;;;;;5056494;28;20475;-67
2021/03/13 05:55:19;;;;;;;13.73;8.30;;;17.70;52.10;;;;;;5056508;28;20028;-67
2021/03/13 05:57:45;;;;;;;14.50;7.53;;;17.60;52.10;;;;;;5056365;28;20033;-67
2021/03/13 06:00:12;;;;;;;15.95;8.25;;;17.60;52.30;;;;;;5056602;28;20086;-67
2021/03/13 06:02:38;;;;;;;15.10;7.90;;;17.70;52.20;;;;;;5056157;28;20389;-66
2021/03/13 06:05:04;;;;;;;13.93;8.60;;;17.70;52.10;;;;;;5054775;28;20495;-66
2021/03/13 06:07:31;;;;;;;14.38;8.27;;;17.70;52.10;;;;;;5056657;28;20033;-67
2021/03/13 06:09:57;;;;;;;13.82;7.15;;;17.70;52.00;;;;;;5055974;28;20048;-67
2021/03/13 06:12:24;;;;;;;11.85;7.28;;;17.70;52.30;;;;;;5055768;28;20036;-67
2021/03/13 06:14:53;;;;;;;14.52;8.50;;;17.60;52.10;;;;;;5055896;28;20052;-67
2021/03/13 06:17:20;;;;;;;15.25;8.25;;;17.60;52.40;;;;;;5055965;28;20079;-67
2021/03/13 06:19:57;;;;;;;14.27;8.70;;;17.60;52.20;;;;;;5055893;28;20068;-67
2021/03/13 06:22:56;;;;;;;12.88;7.10;;;17.50;52.30;;;;;;5055982;28;20037;-67
2021/03/13 06:25:25;;;;;;;11.75;6.32;;;17.50;52.40;;;;;;5032571;28;20107;-66
2021/03/13 06:28:08;;;;;;;11.83;6.33;;;17.40;52.50;;;;;;5055603;28;20546;-66
2021/03/13 06:30:35;;;;;;;13.63;8.23;;;17.40;52.60;;;;;;5055560;28;20029;-67
2021/03/13 06:33:17;;;;;;;11.93;6.75;;;17.40;52.80;;;;;;5056015;28;20021;-67
2021/03/13 06:35:43;;;;;;;11.77;6.75;;;17.40;52.80;;;;;;5055856;28;20108;-67
2021/03/13 06:38:21;;;;;;;10.93;6.57;;;17.30;52.80;;;;;;5055764;28;20117;-67
2021/03/13 06:40:51;;;;;;;12.73;7.38;;;17.30;52.80;;;;;;5056162;28;20033;-67
2021/03/13 06:43:17;;;;;;;;;;;17.30;52.90;;;;;;5056002;28;20025;-67
2021/03/13 06:45:58;;;;;;;11.43;6.35;;;17.30;52.90;;;;;;5055804;28;19912;-67
2021/03/13 06:48:50;;;;;;;11.73;6.80;;;17.30;52.90;;;;;;5055398;28;20116;-68
2021/03/13 06:51:22;;;;;;;11.57;6.25;;;17.20;53.00;;;;;;5055201;28;20491;-67
2021/03/13 06:54:06;;;;;;;11.35;6.75;;;17.20;52.90;;;;;;5055302;28;20028;-67
2021/03/13 06:56:41;;;;;;;9.85;6.07;;;17.20;53.00;;;;;;5055169;28;20392;-67
2021/03/13 06:59:41;;;;;;;11.98;5.97;;;17.20;53.10;;;;;;5055285;28;20028;-67
2021/03/13 07:02:11;;;;;;;10.05;6.05;;;17.30;52.90;;;;;;5055116;28;20500;-67
2021/03/13 07:04:44;;;;;;;9.70;5.80;;;17.30;52.70;;;;;;5055387;28;20037;-67
2021/03/13 07:07:29;;;;;;;10.73;6.15;;;17.40;52.60;;;;;;5055318;28;20043;-67
2021/03/13 07:09:57;;;;;;;10.20;6.43;;;17.40;52.50;;;;;;5055363;28;20032;-67
2021/03/13 07:12:36;;;;;;;8.38;5.07;;;17.40;53.10;;;;;;5054912;28;20024;-67
2021/03/13 07:15:18;;;;;;;11.23;6.55;;;17.40;52.80;;;;;;5054777;28;20489;-67
2021/03/13 07:17:49;;;;;;;10.23;5.55;;;17.40;52.70;;;;;;5054327;28;20155;-67
2021/03/13 07:20:14;;;;;;;;;;;17.40;52.60;;;;;;5054936;28;20029;-66
2021/03/13 07:22:42;;;;;;;9.80;5.97;;;17.30;52.60;;;;;;5055559;28;19908;-67
2021/03/13 07:25:09;;;;;;;10.68;6.13;;;17.30;53.40;;;;;;5054679;28;20079;-67
2021/03/13 07:27:40;;;;;;;9.40;5.55;;;17.20;52.90;;;;;;5054802;28;20053;-67
2021/03/13 07:30:11;;;;;;;9.15;5.80;;;17.20;53.00;;;;;;5054641;28;20025;-67
2021/03/13 07:32:42;;;;;;;9.90;5.88;;;17.20;53.00;;;;;;5053353;28;20036;-67
2021/03/13 07:35:09;;;;;;;;;;;17.10;53.00;;;;;;5055648;28;20420;-67
2021/03/13 07:37:41;;;;;;;9.30;5.07;;;17.20;53.10;;;;;;5054409;28;19913;-67
2021/03/13 07:40:16;;;;;;;8.38;5.47;;;17.10;53.00;;;;;;5054726;28;20464;-67
2021/03/13 07:42:46;;;;;;;11.73;6.35;;;17.10;53.20;;;;;;5054452;28;20028;-67
2021/03/13 07:45:13;;;;;;;9.60;5.25;;;17.20;53.10;;;;;;5054327;28;20032;-67
2021/03/13 07:47:43;;;;;;;9.85;5.95;;;17.10;53.20;;;;;;5054479;28;20025;-67
2021/03/13 07:50:12;;;;;;;11.48;5.57;;;17.10;53.30;;;;;;5054255;28;20036;-67
2021/03/13 07:52:39;;;;;;;8.43;5.40;;;17.10;53.30;;;;;;5054090;28;20032;-67
2021/03/13 07:55:14;;;;;;;8.82;5.35;;;17.10;53.30;;;;;;5054352;28;20021;-67
2021/03/13 07:57:45;;;;;;;9.77;5.25;;;17.10;53.30;;;;;;5054461;28;20492;-67
2021/03/13 08:00:11;;;;;;;;;;;17.10;53.50;;;;;;5054477;28;20025;-67
2021/03/13 08:02:38;;;;;;;9.95;6.68;;;17.00;53.70;;;;;;5054020;28;20432;-67
2021/03/13 08:05:18;;;;;;;8.85;5.00;;;17.10;53.40;;;;;;5053980;28;20040;-67
2021/03/13 08:08:03;;;;;;;9.10;5.60;;;17.10;53.40;;;;;;5053950;28;20032;-67
2021/03/13 08:10:42;;;;;;;7.53;4.72;;;17.10;53.40;;;;;;5054539;28;20436;-67
2021/03/13 08:13:09;;;;;;;9.57;4.80;;;17.20;53.40;;;;;;5053912;28;20076;-67
2021/03/13 08:15:41;;;;;;;9.25;5.65;;;17.20;53.20;;;;;;5053341;28;20048;-67
2021/03/13 08:18:13;;;;;;;7.70;4.72;;;17.20;53.30;;;;;;5053802;28;20041;-67
2021/03/13 08:20:39;;;;;;;8.00;5.43;;;17.20;53.40;;;;;;5053995;28;20358;-67
2021/03/13 08:23:11;;;;;;;8.32;5.35;;;17.20;53.30;;;;;;5053751;28;20025;-67
2021/03/13 08:25:55;;;;;;;8.15;4.63;;;17.20;53.40;;;;;;5053445;28;20107;-67
2021/03/13 08:28:49;;;;;;;9.60;5.25;;;17.10;53.60;;;;;;5053734;28;20056;-67
2021/03/13 08:31:33;;;;;;;8.02;4.85;;;17.10;53.60;;;;;;5053441;28;20431;-66
2021/03/13 08:34:02;;;;;;;9.40;4.72;;;17.10;53.70;;;;;;5053962;28;20031;-67
2021/03/13 08:36:33;;;;;;;11.23;5.35;;;17.20;53.60;;;;;;5053349;28;20481;-67
2021/03/13 08:39:11;;;;;;;11.10;5.65;;;17.30;53.80;;;;;;5053658;28;20031;-67
2021/03/13 08:41:42;;;;;;;11.38;4.63;;;17.40;53.40;;;;;;5053603;28;20033;-65
2021/03/13 08:44:11;;;;;;;9.40;4.93;;;17.60;51.30;;;;;;5053486;28;20099;-70
2021/03/13 08:46:44;;;;;;;7.55;3.95;;;17.80;49.30;;;;;;5053570;28;20091;-69
2021/03/13 08:49:12;;;;;;;13.27;4.63;;;17.80;48.80;;;;;;5053220;28;20485;-69
2021/03/13 08:51:38;;;;;;;8.02;4.55;;;17.80;47.20;;;;;;5053415;28;20020;-66
2021/03/13 08:54:04;;;;;;;13.20;5.00;;;17.90;45.00;;;;;;5053449;28;20354;-64
2021/03/13 08:56:43;;;;;;;9.38;4.03;;;17.90;43.50;;;;;;5053342;28;20041;-65
2021/03/13 08:59:19;;;;;;;5.75;3.72;;;17.90;42.70;;;;;;5053723;28;20031;-70
2021/03/13 09:02:02;;;;;;;9.75;4.32;;;17.90;41.90;;;;;;5053225;28;20036;-70
2021/03/13 09:04:32;;;;;;;12.02;3.85;;;17.80;43.40;;;;;;5053817;28;20025;-72
2021/03/13 09:07:00;;;;;;;11.57;3.25;;;17.90;42.20;;;;;;5053318;28;20072;-70
2021/03/13 09:09:28;;;;;;;6.60;3.78;;;18.00;40.90;;;;;;5053028;28;20083;-66
2021/03/13 09:11:59;;;;;;;12.52;3.80;;;18.10;40.60;;;;;;5053620;28;20064;-63
2021/03/13 09:14:25;;;;;;;47.90;27.15;;;18.10;40.50;;;;;;5053188;28;20036;-65
2021/03/13 09:16:51;;;;;;;37.05;19.05;;;18.20;40.30;;;;;;5053185;28;20123;-67
2021/03/13 09:19:17;;;;;;;32.72;17.83;;;18.20;39.70;;;;;;5052951;28;20054;-64
2021/03/13 09:21:44;;;;;;;32.95;20.02;;;18.20;39.50;;;;;;5053146;28;20029;-65
2021/03/13 09:24:13;;;;;;;27.48;15.60;;;18.20;39.80;;;;;;5075854;28;20476;-66
2021/03/13 09:26:39;;;;;;;36.80;20.33;;;18.10;40.90;;;;;;5093017;28;20515;-66
2021/03/13 09:29:05;;;;;;;28.60;15.38;;;17.80;41.10;;;;;;5079052;28;20099;-66
2021/03/13 09:31:31;;;;;;;19.63;11.55;;;17.60;40.60;;;;;;5077302;28;20025;-65
2021/03/13 09:34:18;;;;;;;12.50;6.78;;;17.40;39.80;;;;;;5076808;28;20552;-65
2021/03/13 09:36:46;;;;;;;7.28;5.18;;;17.30;41.00;;;;;;5076708;28;20039;-64
2021/03/13 09:39:14;;;;;;;8.30;5.10;;;17.20;40.50;;;;;;5076449;28;20379;-69
2021/03/13 09:41:39;;;;;;;11.77;5.63;;;17.30;40.10;;;;;;5076703;28;20111;-63
2021/03/13 09:44:05;;;;;;;11.52;7.47;;;17.40;38.70;;;;;;5076639;28;20096;-73
2021/03/13 09:46:31;;;;;;;11.85;6.07;;;17.60;38.20;;;;;;5076818;28;20097;-73
2021/03/13 09:49:00;;;;;;;10.95;5.72;;;17.80;38.40;;;;;;5076361;28;20025;-73
2021/03/13 09:51:26;;;;;;;8.27;5.53;;;17.90;38.80;;;;;;5076029;28;20424;-73
2021/03/13 09:53:52;;;;;;;12.00;5.25;;;18.10;39.20;;;;;;5075501;28;20376;-71
2021/03/13 09:56:29;;;;;;;8.60;4.57;;;18.20;39.20;;;;;;5090922;28;20040;-72
2021/03/13 09:58:59;;;;;;;10.07;5.63;;;18.40;39.50;;;;;;5094700;28;20039;-71
2021/03/13 10:01:25;;;;;;;8.52;4.13;;;18.50;39.60;;;;;;5095072;28;20024;-73
2021/03/13 10:03:51;;;;;;;9.43;4.30;;;18.60;39.70;;;;;;5095270;28;20032;-72
2021/03/13 10:06:18;;;;;;;11.27;4.07;;;18.70;40.00;;;;;;5095077;28;20052;-72
2021/03/13 10:08:44;;;;;;;9.00;4.07;;;18.60;40.50;;;;;;5095094;28;20117;-73
2021/03/13 10:11:09;;;;;;;6.00;3.45;;;18.70;40.90;;;;;;5095184;28;20062;-72
2021/03/13 10:13:35;;;;;;;8.52;3.95;;;18.80;40.50;;;;;;5095697;28;20028;-73
2021/03/13 10:16:02;;;;;;;6.88;3.17;;;19.00;40.50;;;;;;5096226;28;20024;-73
2021/03/13 10:18:28;;;;;;;6.32;3.22;;;19.00;40.70;;;;;;5094612;28;20021;-73
2021/03/13 10:20:59;;;;;;;6.10;3.42;;;19.00;40.50;;;;;;5095889;28;20024;-72
2021/03/13 10:23:32;;;;;;;6.60;3.05;;;19.00;41.20;;;;;;5096109;28;20039;-72
2021/03/13 10:26:00;;;;;;;7.18;3.70;;;18.90;41.50;;;;;;5096040;28;20044;-72
2021/03/13 10:28:29;;;;;;;8.93;3.75;;;18.90;41.60;;;;;;5095902;28;20127;-73
2021/03/13 10:31:10;;;;;;;5.93;3.30;;;18.90;41.60;;;;;;5096052;28;20426;-73
2021/03/13 10:33:37;;;;;;;7.80;2.90;;;18.90;42.10;;;;;;5095861;28;20028;-72
2021/03/13 10:36:04;;;;;;;5.95;2.92;;;18.80;42.20;;;;;;5096332;28;20046;-72
2021/03/13 10:38:37;;;;;;;6.15;2.80;;;18.80;42.30;;;;;;5095719;28;20139;-73
2021/03/13 10:41:27;;;;;;;6.75;3.33;;;18.80;42.60;;;;;;5096034;28;20515;-72
2021/03/13 10:43:53;;;;;;;6.43;3.10;;;18.80;42.80;;;;;;5095494;28;20476;-72
2021/03/13 10:46:23;;;;;;;7.20;2.80;;;18.70;42.90;;;;;;5095716;28;20032;-72
2021/03/13 10:48:53;;;;;;;7.18;2.88;;;18.70;43.00;;;;;;5095586;28;20028;-72
2021/03/13 10:51:35;;;;;;;5.65;3.35;;;18.70;43.30;;;;;;5095666;28;20032;-72
2021/03/13 10:54:03;;;;;;;4.40;2.60;;;18.70;43.40;;;;;;5095595;28;20028;-72
2021/03/13 10:56:38;;;;;;;6.25;3.20;;;18.60;43.40;;;;;;5095498;28;20039;-72
2021/03/13 10:59:04;;;;;;;6.82;2.92;;;18.60;43.60;;;;;;5095396;28;20119;-72
2021/03/13 11:01:30;;;;;;;5.18;2.67;;;18.60;43.70;;;;;;5095210;28;20036;-72
2021/03/13 11:03:56;;;;;;;6.45;3.65;;;18.60;44.00;;;;;;5095208;28;20046;-72
2021/03/13 11:06:28;;;;;;;9.15;3.15;;;18.60;44.00;;;;;;5095373;28;20024;-72
2021/03/13 11:08:56;;;;;;;7.20;2.92;;;18.60;44.10;;;;;;5095281;28;20099;-71
2021/03/13 11:11:21;;;;;;;6.28;3.05;;;18.70;44.00;;;;;;5095269;28;20028;-71
2021/03/13 11:13:48;;;;;;;5.80;2.55;;;18.80;44.10;;;;;;5095527;28;20375;-67
2021/03/13 11:16:13;;;;;;;9.48;3.40;;;18.70;44.00;;;;;;5094949;28;20498;-69
2021/03/13 11:18:39;;;;;;;7.20;2.85;;;18.80;44.20;;;;;;5095080;28;20086;-69
2021/03/13 11:21:06;;;;;;;7.80;3.40;;;18.80;44.20;;;;;;5093686;28;20384;-67
2021/03/13 11:23:31;;;;;;;10.02;5.05;;;18.70;44.30;;;;;;5079864;28;20033;-71
2021/03/13 11:25:57;;;;;;;59.85;38.08;;;18.70;44.00;;;;;;5094549;28;20055;-73
2021/03/13 11:28:23;;;;;;;81.50;45.83;;;18.60;43.80;;;;;;5093746;28;20032;-72
2021/03/13 11:30:49;;;;;;;67.97;39.08;;;18.60;43.30;;;;;;5094973;28;20063;-72
2021/03/13 11:33:15;;;;;;;69.47;40.42;;;18.60;42.80;;;;;;5094620;28;20112;-73
2021/03/13 11:35:43;;;;;;;91.05;48.70;;;18.50;42.80;;;;;;5094568;28;20077;-76
2021/03/13 11:38:09;;;;;;;97.28;53.30;;;18.50;42.40;;;;;;5074357;28;20056;-70
2021/03/13 11:40:35;;;;;;;84.07;43.35;;;18.40;41.90;;;;;;5074345;28;20044;-65
2021/03/13 11:43:01;;;;;;;74.07;42.53;;;18.40;41.80;;;;;;5074479;28;20025;-70
2021/03/13 11:45:30;;;;;;;76.97;42.03;;;18.30;42.40;;;;;;5074330;28;20035;-72
2021/03/13 11:47:57;;;;;;;73.75;39.28;;;18.30;43.40;;;;;;5074146;28;20028;-71
2021/03/13 11:50:25;;;;;;;91.30;38.58;;;18.30;44.30;;;;;;5073318;28;20029;-68
2021/03/13 11:52:54;;;;;;;67.88;31.63;;;18.30;43.70;;;;;;5074457;28;20045;-68
2021/03/13 11:55:20;;;;;;;57.83;29.23;;;18.30;43.30;;;;;;5074103;28;20100;-70
2021/03/13 11:57:46;;;;;;;54.60;25.08;;;18.30;43.40;;;;;;5073736;28;20060;-64
2021/03/13 12:00:12;;;;;;;37.03;20.73;;;18.20;42.60;;;;;;5073736;28;20067;-69
2021/03/13 12:02:38;;;;;;;32.67;16.10;;;18.20;42.20;;;;;;5073688;28;20081;-65
2021/03/13 12:05:08;;;;;;;37.88;15.02;;;18.10;41.80;;;;;;5073885;28;20125;-64
2021/03/13 12:07:35;;;;;;;33.00;16.42;;;18.10;42.40;;;;;;5074009;28;20116;-64
2021/03/13 12:10:02;;;;;;;39.45;16.27;;;18.20;43.00;;;;;;5073833;28;20056;-64
2021/03/13 12:12:28;;;;;;;34.10;17.33;;;18.30;43.50;;;;;;5074000;28;20020;-74
2021/03/13 12:14:53;;;;;;;28.92;16.20;;;18.20;44.30;;;;;;5073790;28;20036;-61
2021/03/13 12:17:19;;;;;;;31.80;16.75;;;18.20;44.90;;;;;;5073672;28;20031;-70
2021/03/13 12:19:46;;;;;;;28.90;16.27;;;18.20;45.30;;;;;;5074366;28;20028;-72
2021/03/13 12:22:11;;;;;;;29.00;15.85;;;18.20;45.10;;;;;;5073578;28;20125;-71
2021/03/13 12:24:37;;;;;;;29.38;15.30;;;18.20;45.30;;;;;;5073753;28;20056;-70
2021/03/13 12:27:04;;;;;;;32.50;14.80;;;18.20;45.50;;;;;;5073581;28;20479;-70
2021/03/13 12:29:30;;;;;;;26.80;13.45;;;18.10;45.30;;;;;;5073702;28;20035;-71
2021/03/13 12:31:56;;;;;;;33.00;13.63;;;18.10;45.30;;;;;;5073501;28;20082;-71
2021/03/13 12:34:21;;;;;;;26.52;12.32;;;18.00;45.50;;;;;;5073560;28;20025;-72
2021/03/13 12:36:47;;;;;;;30.25;12.25;;;18.00;45.50;;;;;;5073247;28;20028;-71
2021/03/13 12:39:13;;;;;;;19.00;10.93;;;18.00;45.60;;;;;;5073644;28;20564;-70
2021/03/13 12:41:38;;;;;;;24.13;11.70;;;18.00;45.70;;;;;;5073693;28;20364;-68
2021/03/13 12:44:05;;;;;;;33.22;11.95;;;18.00;46.10;;;;;;5073419;28;20484;-70